Time;durP1;ratioP1;P1;durP2;ratioP2;P2;SDS_P1;SDS_P2;PMS_P1;PMS_P2;Temp;Humidity;BMP_temperature;BMP_pressure;BME280_temperature;BME280_humidity;BME280_pressure;Samples;Min_cycle;Max_cycle;Signal;HPM_P1;HPM_P2
2022/12/29 00:01:24;;;;;;;2.90;1.80;;;9.10;99.90;;;;;;5074608;28;20884;-60
2022/12/29 00:03:51;;;;;;;2.30;1.80;;;9.10;99.90;;;;;;5074576;28;20412;-61
2022/12/29 00:06:17;;;;;;;2.80;1.90;;;9.20;99.90;;;;;;5074016;28;21016;-61
2022/12/29 00:08:44;;;;;;;2.10;1.60;;;9.20;99.90;;;;;;5074640;28;20416;-61
2022/12/29 00:11:13;;;;;;;1.95;1.58;;;9.20;99.90;;;;;;5072983;28;20485;-61
2022/12/29 00:16:27;;;;;;;1.80;1.60;;;9.30;99.90;;;;;;5072351;28;20414;-59
2022/12/29 00:18:54;;;;;;;2.03;1.58;;;9.40;99.90;;;;;;5072200;28;20416;-61
2022/12/29 00:35:18;;;;;;;1.85;1.60;;;9.60;99.90;;;;;;5076052;28;20421;-59
2022/12/29 00:46:02;;;;;;;2.40;1.33;;;9.70;99.90;;;;;;5075753;28;20752;-61
2022/12/29 00:51:13;;;;;;;2.53;1.60;;;9.70;99.90;;;;;;5075971;28;20468;-60
2022/12/29 00:53:39;;;;;;;1.60;1.33;;;9.80;99.90;;;;;;5075611;28;20421;-62
2022/12/29 00:56:06;;;;;;;1.80;1.60;;;9.80;99.90;;;;;;5075535;28;20431;-60
2022/12/29 00:58:33;;;;;;;2.83;1.70;;;9.80;99.90;;;;;;5075394;28;20411;-61
2022/12/29 01:01:05;;;;;;;1.70;1.40;;;9.80;99.90;;;;;;5075343;28;20411;-60
2022/12/29 01:03:33;;;;;;;2.28;1.40;;;9.80;99.90;;;;;;5075428;28;20416;-60
2022/12/29 01:06:02;;;;;;;1.48;1.38;;;9.80;99.90;;;;;;5076072;28;20410;-60
2022/12/29 01:08:29;;;;;;;2.28;1.60;;;9.90;99.90;;;;;;5075160;28;20419;-60
2022/12/29 01:10:58;;;;;;;1.98;1.70;;;9.90;99.90;;;;;;5075025;28;20412;-60
2022/12/29 01:13:25;;;;;;;2.83;1.70;;;9.90;99.90;;;;;;5075644;28;20498;-61
2022/12/29 01:15:52;;;;;;;2.30;1.58;;;9.90;99.90;;;;;;5075036;28;20942;-60
2022/12/29 01:18:21;;;;;;;1.90;1.63;;;9.90;99.90;;;;;;5075318;28;20415;-61
2022/12/29 01:20:47;;;;;;;2.10;1.50;;;9.90;99.90;;;;;;5075372;28;20445;-60
2022/12/29 01:23:14;;;;;;;1.83;1.50;;;9.90;99.90;;;;;;5075105;28;20418;-61
2022/12/29 01:25:41;;;;;;;2.47;1.60;;;9.80;99.90;;;;;;5075443;28;20408;-61
2022/12/29 01:28:08;;;;;;;1.90;1.60;;;9.80;99.90;;;;;;5074747;28;20583;-61
2022/12/29 01:30:35;;;;;;;1.60;1.30;;;9.80;99.90;;;;;;5075123;28;20888;-60
2022/12/29 01:33:03;;;;;;;1.75;1.30;;;9.80;99.90;;;;;;5075071;28;20437;-60
2022/12/29 01:35:32;;;;;;;1.80;1.40;;;9.80;99.90;;;;;;5074915;28;20424;-60
2022/12/29 01:37:59;;;;;;;2.10;1.60;;;9.80;99.90;;;;;;5073899;28;20419;-60
2022/12/29 01:40:25;;;;;;;1.85;1.40;;;9.70;99.90;;;;;;5074678;28;20423;-60
2022/12/29 01:42:52;;;;;;;2.88;1.30;;;9.70;99.90;;;;;;5074474;28;20411;-59
2022/12/29 01:45:19;;;;;;;2.05;1.50;;;9.70;99.90;;;;;;5074425;28;20438;-60
2022/12/29 01:47:49;;;;;;;1.63;1.40;;;9.70;99.90;;;;;;5074504;28;20424;-60
2022/12/29 01:50:21;;;;;;;2.95;1.30;;;9.70;99.90;;;;;;5075288;28;20408;-60
2022/12/29 01:52:55;;;;;;;2.33;1.60;;;9.70;99.90;;;;;;5074607;28;20433;-60
2022/12/29 01:55:22;;;;;;;2.90;1.10;;;9.70;99.90;;;;;;5074498;28;20427;-59
2022/12/29 01:57:51;;;;;;;1.60;1.50;;;9.70;99.90;;;;;;5074386;28;20427;-60
2022/12/29 02:00:18;;;;;;;2.10;1.42;;;9.70;99.90;;;;;;5074474;28;20415;-59
2022/12/29 02:02:48;;;;;;;1.70;1.17;;;9.70;99.90;;;;;;5074385;28;20436;-59
2022/12/29 02:05:21;;;;;;;1.60;1.30;;;9.70;99.90;;;;;;5073944;28;20412;-60
2022/12/29 02:07:50;;;;;;;2.08;1.55;;;9.70;99.90;;;;;;5074259;28;20427;-59
2022/12/29 02:10:18;;;;;;;2.30;1.55;;;9.70;99.90;;;;;;5074165;28;20415;-60
2022/12/29 02:12:46;;;;;;;1.60;1.30;;;9.70;99.90;;;;;;5074324;28;20423;-61
2022/12/29 02:15:13;;;;;;;2.05;1.50;;;9.70;99.90;;;;;;5073901;28;20429;-60
2022/12/29 02:18:04;;;;;;;3.00;1.50;;;9.60;99.90;;;;;;5073658;28;20419;-60
2022/12/29 02:21:20;;;;;;;2.42;1.60;;;9.60;99.90;;;;;;5074290;28;20427;-60
2022/12/29 02:24:31;;;;;;;1.97;1.27;;;9.60;99.90;;;;;;5037815;28;20453;-61
2022/12/29 02:27:34;;;;;;;2.22;1.40;;;9.60;99.90;;;;;;5001222;28;20409;-59
2022/12/29 02:30:18;;;;;;;2.10;1.30;;;9.60;99.90;;;;;;5039373;28;20499;-60
2022/12/29 02:32:54;;;;;;;1.20;1.10;;;9.60;99.90;;;;;;5080897;28;20423;-60
2022/12/29 02:35:31;;;;;;;1.60;1.40;;;9.60;99.90;;;;;;5080607;28;20459;-60
2022/12/29 02:38:11;;;;;;;2.30;1.30;;;9.70;99.90;;;;;;5077551;28;20520;-61
2022/12/29 02:40:44;;;;;;;1.33;1.20;;;9.70;99.90;;;;;;5077371;28;20411;-59
2022/12/29 02:43:20;;;;;;;2.40;1.10;;;9.80;99.90;;;;;;5077425;28;20430;-61
2022/12/29 02:45:52;;;;;;;2.00;1.48;;;9.80;99.90;;;;;;5078309;28;20511;-60
2022/12/29 02:48:26;;;;;;;1.70;1.30;;;9.80;99.90;;;;;;5077692;28;20419;-61
2022/12/29 02:50:59;;;;;;;1.80;1.20;;;9.80;99.90;;;;;;5077210;28;20424;-60
2022/12/29 02:56:27;;;;;;;1.50;1.38;;;9.90;99.90;;;;;;5031186;28;20423;-61
2022/12/29 02:58:53;;;;;;;1.33;1.10;;;9.90;99.90;;;;;;5030899;28;20942;-60
2022/12/29 03:01:33;;;;;;;2.70;1.40;;;9.90;99.90;;;;;;5049496;28;20414;-60
2022/12/29 03:04:27;;;;;;;2.03;1.30;;;9.90;99.90;;;;;;5072805;28;20480;-60
2022/12/29 03:07:01;;;;;;;2.47;1.20;;;10.00;99.90;;;;;;5072915;28;20422;-60
2022/12/29 03:09:42;;;;;;;3.42;1.15;;;10.00;99.90;;;;;;5073522;28;20744;-59
2022/12/29 03:12:15;;;;;;;2.33;1.30;;;10.00;99.90;;;;;;5072646;28;20411;-61
2022/12/29 03:17:49;;;;;;;3.00;1.20;;;10.00;99.90;;;;;;5072333;28;20498;-62
2022/12/29 03:20:22;;;;;;;2.00;1.10;;;10.10;99.90;;;;;;5072696;28;20434;-61
2022/12/29 03:22:52;;;;;;;2.60;1.70;;;10.10;99.90;;;;;;5072705;28;20761;-61
2022/12/29 03:25:22;;;;;;;1.60;1.20;;;10.10;99.90;;;;;;5072824;28;20768;-59
2022/12/29 03:27:53;;;;;;;1.40;1.20;;;10.10;99.90;;;;;;5072593;28;20411;-60
2022/12/29 03:30:20;;;;;;;1.45;1.05;;;10.10;99.90;;;;;;5072225;28;20419;-60
2022/12/29 03:32:50;;;;;;;1.27;1.10;;;10.10;99.90;;;;;;5071878;28;20921;-60
2022/12/29 03:35:21;;;;;;;1.70;1.20;;;10.10;99.90;;;;;;5072576;28;20418;-60
2022/12/29 03:37:53;;;;;;;2.93;1.40;;;10.10;99.90;;;;;;5072272;28;20435;-61
2022/12/29 03:40:23;;;;;;;1.20;1.00;;;10.10;99.90;;;;;;5072540;28;20439;-60
2022/12/29 03:42:51;;;;;;;1.73;1.20;;;10.20;99.90;;;;;;5072097;28;20916;-60
2022/12/29 03:45:18;;;;;;;1.83;1.10;;;10.20;99.90;;;;;;5072183;28;20415;-59
2022/12/29 03:47:44;;;;;;;1.30;1.10;;;10.20;99.90;;;;;;5072753;28;20465;-59
2022/12/29 03:50:12;;;;;;;1.60;1.20;;;10.20;99.90;;;;;;5072135;28;20424;-60
2022/12/29 03:52:40;;;;;;;1.40;1.30;;;10.20;99.90;;;;;;5071684;28;20906;-60
2022/12/29 03:55:08;;;;;;;1.70;1.20;;;10.30;99.90;;;;;;5071702;28;20904;-59
2022/12/29 03:57:35;;;;;;;1.58;1.10;;;10.20;99.90;;;;;;5071782;28;20944;-60
2022/12/29 04:00:02;;;;;;;1.92;1.20;;;10.20;99.90;;;;;;5071740;28;20911;-60
2022/12/29 04:02:28;;;;;;;1.40;0.90;;;10.30;99.90;;;;;;5072556;28;20440;-60
2022/12/29 04:04:55;;;;;;;1.90;1.00;;;10.40;99.90;;;;;;5071878;28;20428;-60
2022/12/29 04:10:52;;;;;;;2.30;0.90;;;10.50;99.90;;;;;;5110368;27;20848;-62
2022/12/29 04:13:19;;;;;;;1.10;0.85;;;10.50;99.90;;;;;;5109847;28;20409;-62
2022/12/29 04:15:46;;;;;;;1.80;0.80;;;10.60;99.90;;;;;;5109558;28;20881;-61
2022/12/29 04:18:13;;;;;;;1.10;0.80;;;10.60;99.90;;;;;;5109651;28;20417;-61
2022/12/29 04:23:38;;;;;;;1.05;0.90;;;10.70;99.90;;;;;;5028513;28;20404;-61
2022/12/29 04:26:08;;;;;;;2.47;0.90;;;10.80;99.90;;;;;;5090554;28;20417;-61
2022/12/29 04:28:35;;;;;;;1.20;0.80;;;10.80;99.90;;;;;;5109086;28;20857;-62
2022/12/29 04:31:03;;;;;;;1.10;0.80;;;10.80;99.90;;;;;;5109556;28;20417;-62
2022/12/29 04:33:30;;;;;;;1.77;0.80;;;10.90;99.90;;;;;;5109212;28;20420;-61
2022/12/29 04:35:57;;;;;;;0.90;0.70;;;11.00;99.90;;;;;;5109168;28;20417;-61
2022/12/29 04:38:24;;;;;;;1.30;0.90;;;11.00;99.90;;;;;;5109289;28;20416;-62
2022/12/29 04:40:51;;;;;;;2.00;1.00;;;11.00;99.90;;;;;;5109192;28;20882;-61
2022/12/29 04:43:21;;;;;;;1.05;0.75;;;11.10;99.90;;;;;;5109212;28;20413;-62
2022/12/29 04:45:48;;;;;;;1.90;0.93;;;11.10;99.90;;;;;;5109573;28;20445;-61
2022/12/29 04:48:15;;;;;;;0.90;0.70;;;11.20;99.90;;;;;;5109186;28;20424;-62
2022/12/29 04:50:43;;;;;;;2.00;0.90;;;11.20;99.90;;;;;;5109709;28;20432;-61
2022/12/29 04:53:10;;;;;;;1.10;0.63;;;11.20;99.90;;;;;;5109057;28;20406;-61
2022/12/29 04:55:37;;;;;;;1.40;0.70;;;11.20;99.90;;;;;;5109105;28;20405;-61
2022/12/29 04:58:03;;;;;;;1.20;0.80;;;11.20;99.90;;;;;;5108857;28;20773;-61
2022/12/29 05:00:32;;;;;;;1.50;0.80;;;11.20;99.90;;;;;;5109041;28;20405;-62
2022/12/29 05:02:58;;;;;;;1.23;0.90;;;11.20;99.90;;;;;;5108950;28;20421;-62
2022/12/29 05:05:25;;;;;;;1.23;0.70;;;11.20;99.90;;;;;;5108968;28;20424;-62
2022/12/29 05:07:52;;;;;;;1.70;0.90;;;11.20;99.90;;;;;;5108881;28;20416;-61
2022/12/29 05:10:19;;;;;;;2.40;0.90;;;11.20;99.90;;;;;;5125011;28;20419;-60
2022/12/29 05:12:46;;;;;;;0.90;0.70;;;11.20;99.90;;;;;;5129405;28;20407;-62
2022/12/29 05:15:14;;;;;;;1.20;0.80;;;11.20;99.90;;;;;;5129242;28;20403;-61
2022/12/29 05:17:42;;;;;;;1.63;0.80;;;11.20;99.90;;;;;;5129501;28;20442;-61
2022/12/29 05:20:10;;;;;;;2.13;0.80;;;11.20;99.90;;;;;;5127552;28;20422;-60
2022/12/29 05:22:37;;;;;;;1.70;0.90;;;11.20;99.90;;;;;;5115271;28;20415;-61
2022/12/29 05:25:04;;;;;;;1.40;0.80;;;11.20;99.90;;;;;;5115591;28;20420;-62
2022/12/29 05:27:30;;;;;;;1.20;0.70;;;11.20;99.90;;;;;;5115355;28;20408;-61
2022/12/29 05:29:57;;;;;;;1.10;0.82;;;11.20;99.90;;;;;;5116011;28;20424;-60
2022/12/29 05:32:24;;;;;;;1.60;0.90;;;11.30;99.90;;;;;;5116016;28;20507;-61
2022/12/29 05:34:52;;;;;;;1.50;0.70;;;11.20;99.90;;;;;;5116084;28;20405;-61
2022/12/29 05:37:19;;;;;;;1.25;0.73;;;11.20;99.90;;;;;;5115139;28;20410;-61
2022/12/29 05:39:46;;;;;;;1.52;0.80;;;11.20;99.90;;;;;;5115176;28;20401;-61
2022/12/29 05:42:12;;;;;;;1.00;0.60;;;11.20;99.90;;;;;;5114898;28;20412;-62
2022/12/29 05:44:39;;;;;;;0.90;0.70;;;11.30;99.90;;;;;;5115471;28;20420;-60
2022/12/29 05:47:06;;;;;;;2.10;0.80;;;11.30;99.90;;;;;;5115290;28;20453;-61
2022/12/29 05:49:33;;;;;;;2.58;0.90;;;11.30;99.90;;;;;;5114766;28;20427;-60
2022/12/29 05:52:01;;;;;;;1.10;0.70;;;11.20;99.90;;;;;;5114598;28;20408;-61
2022/12/29 05:54:28;;;;;;;1.48;0.80;;;11.20;99.90;;;;;;5114920;28;20416;-60
2022/12/29 05:56:55;;;;;;;1.70;0.70;;;11.10;99.90;;;;;;5114753;28;20461;-61
2022/12/29 05:59:21;;;;;;;1.17;0.90;;;11.10;99.90;;;;;;5115421;28;20427;-61
2022/12/29 06:01:49;;;;;;;1.50;0.80;;;11.00;99.90;;;;;;5114604;28;20416;-60
2022/12/29 06:04:15;;;;;;;1.60;1.02;;;11.00;99.90;;;;;;5114648;28;20876;-61
2022/12/29 06:06:42;;;;;;;1.40;0.98;;;10.90;99.90;;;;;;5114828;28;20412;-60
2022/12/29 06:09:12;;;;;;;1.30;0.80;;;10.90;99.90;;;;;;5114340;28;20416;-61
2022/12/29 06:11:38;;;;;;;2.70;0.90;;;10.90;99.90;;;;;;5114205;28;20412;-61
2022/12/29 06:14:05;;;;;;;1.90;1.00;;;10.90;99.90;;;;;;5114502;28;20503;-60
2022/12/29 06:16:32;;;;;;;1.90;0.80;;;10.80;99.90;;;;;;5114659;28;20412;-62
2022/12/29 06:18:58;;;;;;;1.20;0.90;;;10.80;99.90;;;;;;5114428;28;20420;-61
2022/12/29 06:21:25;;;;;;;1.20;0.90;;;10.80;99.90;;;;;;5114688;28;20408;-60
2022/12/29 06:23:52;;;;;;;1.10;0.80;;;10.80;99.90;;;;;;5114537;28;20401;-60
2022/12/29 06:26:20;;;;;;;1.60;0.90;;;10.70;99.90;;;;;;5114463;28;20408;-60
2022/12/29 06:28:47;;;;;;;1.50;0.90;;;10.70;99.90;;;;;;5114272;28;20404;-60
2022/12/29 06:31:14;;;;;;;1.70;0.90;;;10.60;99.90;;;;;;5114304;28;20424;-60
2022/12/29 06:33:40;;;;;;;1.85;0.80;;;10.60;99.90;;;;;;5113250;28;20408;-60
2022/12/29 06:36:07;;;;;;;1.70;0.90;;;10.60;99.90;;;;;;5114154;28;20919;-60
2022/12/29 06:38:35;;;;;;;1.00;0.80;;;10.60;99.90;;;;;;5114984;28;20420;-61
2022/12/29 06:41:02;;;;;;;2.00;1.10;;;10.60;99.90;;;;;;5113789;28;20435;-60
2022/12/29 06:43:32;;;;;;;2.13;0.90;;;10.50;99.90;;;;;;5114306;28;20412;-60
2022/12/29 06:45:58;;;;;;;1.40;1.20;;;10.50;99.90;;;;;;5114516;28;20451;-60
2022/12/29 06:48:25;;;;;;;1.20;0.90;;;10.50;99.90;;;;;;5114599;28;20412;-61
2022/12/29 06:50:52;;;;;;;1.60;1.00;;;10.50;99.90;;;;;;5114803;28;20426;-61
2022/12/29 06:53:19;;;;;;;1.10;0.88;;;10.40;99.90;;;;;;5114546;28;20420;-61
2022/12/29 06:55:45;;;;;;;1.55;0.90;;;10.40;99.90;;;;;;5120331;28;20408;-61
2022/12/29 06:58:12;;;;;;;1.20;0.88;;;10.50;99.90;;;;;;5114336;28;20418;-61
2022/12/29 07:00:40;;;;;;;1.90;1.00;;;10.50;99.90;;;;;;5115156;28;20435;-60
2022/12/29 07:03:07;;;;;;;1.25;0.70;;;10.50;99.90;;;;;;5114098;28;20404;-62
2022/12/29 07:05:34;;;;;;;1.60;0.80;;;10.60;99.90;;;;;;5115456;28;20412;-62
2022/12/29 07:08:01;;;;;;;0.90;0.60;;;10.60;99.90;;;;;;5115633;28;20408;-61
2022/12/29 07:10:28;;;;;;;0.60;0.50;;;10.70;99.90;;;;;;5116961;28;20428;-59
2022/12/29 07:12:55;;;;;;;1.70;0.80;;;10.80;99.90;;;;;;5114415;28;20412;-60
2022/12/29 07:15:21;;;;;;;0.70;0.50;;;10.90;99.90;;;;;;5113876;28;20416;-61
2022/12/29 07:17:50;;;;;;;0.90;0.50;;;10.90;99.90;;;;;;5113674;28;20408;-62
2022/12/29 07:20:17;;;;;;;0.70;0.50;;;10.90;99.90;;;;;;5113588;28;20843;-62
2022/12/29 07:22:44;;;;;;;0.90;0.60;;;11.00;99.90;;;;;;5113296;28;20416;-61
2022/12/29 07:25:10;;;;;;;1.20;0.70;;;11.10;99.90;;;;;;5113019;28;20408;-62
2022/12/29 07:27:37;;;;;;;1.48;0.60;;;11.00;99.90;;;;;;5113066;28;20408;-60
2022/12/29 07:30:05;;;;;;;1.48;0.50;;;10.80;99.90;;;;;;5113906;28;20432;-61
2022/12/29 07:32:33;;;;;;;3.20;0.60;;;10.50;99.90;;;;;;5113890;28;20431;-61
2022/12/29 07:35:02;;;;;;;3.50;0.90;;;10.00;99.90;;;;;;5114511;28;20415;-61
2022/12/29 07:37:28;;;;;;;3.13;0.68;;;9.70;99.90;;;;;;5114630;28;20412;-60
2022/12/29 07:39:55;;;;;;;1.63;0.60;;;9.50;99.90;;;;;;5114930;28;20400;-61
2022/12/29 07:42:22;;;;;;;1.13;0.50;;;9.30;99.90;;;;;;5116111;28;20419;-62
2022/12/29 07:44:49;;;;;;;2.80;0.80;;;9.30;99.90;;;;;;5115158;28;20412;-61
2022/12/29 07:47:16;;;;;;;0.70;0.50;;;9.20;99.90;;;;;;5114482;28;20419;-60
2022/12/29 07:49:42;;;;;;;1.30;0.70;;;9.10;99.90;;;;;;5115826;28;20451;-59
2022/12/29 07:52:10;;;;;;;2.50;0.60;;;9.10;99.90;;;;;;5115389;28;20907;-62
2022/12/29 07:54:37;;;;;;;2.70;0.70;;;9.10;99.90;;;;;;5115579;28;20792;-61
2022/12/29 07:57:05;;;;;;;1.20;0.70;;;9.10;99.90;;;;;;5115311;28;20976;-61
2022/12/29 07:59:32;;;;;;;1.20;0.80;;;9.10;99.90;;;;;;5113588;28;20408;-62
2022/12/29 08:01:59;;;;;;;2.30;0.80;;;9.10;99.90;;;;;;5113716;28;20415;-61
2022/12/29 08:04:26;;;;;;;2.10;0.60;;;9.10;99.90;;;;;;5113330;28;20427;-59
2022/12/29 08:06:52;;;;;;;1.10;0.60;;;9.00;99.90;;;;;;5113103;28;20515;-62
2022/12/29 08:09:20;;;;;;;1.30;0.70;;;9.00;99.90;;;;;;5112960;28;20426;-61
2022/12/29 08:11:47;;;;;;;1.52;0.85;;;9.00;99.90;;;;;;5115524;28;20427;-62
2022/12/29 08:14:14;;;;;;;2.22;1.10;;;9.10;99.90;;;;;;5113425;28;20419;-62
2022/12/29 08:16:41;;;;;;;3.57;1.00;;;9.10;99.90;;;;;;5113580;28;20824;-62
2022/12/29 08:19:07;;;;;;;2.20;0.90;;;9.10;99.90;;;;;;5114328;28;20415;-62
2022/12/29 08:21:34;;;;;;;1.13;0.90;;;9.10;99.90;;;;;;5113976;28;20414;-61
2022/12/29 08:24:01;;;;;;;1.60;1.00;;;9.20;99.90;;;;;;5114733;28;20412;-61
2022/12/29 08:26:29;;;;;;;1.15;0.85;;;9.20;99.90;;;;;;5115074;28;20761;-62
2022/12/29 08:28:56;;;;;;;1.40;1.10;;;9.20;99.90;;;;;;5115778;28;20419;-63
2022/12/29 08:31:23;;;;;;;1.55;0.93;;;9.20;99.90;;;;;;5115932;28;20431;-61
2022/12/29 08:33:50;;;;;;;1.65;1.00;;;9.20;99.90;;;;;;5117381;28;20412;-60
2022/12/29 08:36:17;;;;;;;2.20;1.10;;;9.30;99.90;;;;;;5120955;28;20428;-62
2022/12/29 08:38:44;;;;;;;2.20;0.80;;;9.30;99.90;;;;;;5115704;28;20423;-61
2022/12/29 08:41:11;;;;;;;2.67;1.20;;;9.30;99.90;;;;;;5121612;28;20413;-61
2022/12/29 08:43:39;;;;;;;2.75;1.30;;;9.30;99.90;;;;;;5114780;28;20419;-61
2022/12/29 08:46:06;;;;;;;3.00;1.17;;;9.40;99.90;;;;;;5113907;28;20412;-61
2022/12/29 08:48:32;;;;;;;3.08;1.00;;;9.40;99.90;;;;;;5113950;28;20419;-61
2022/12/29 08:51:00;;;;;;;3.15;1.40;;;9.50;99.90;;;;;;5114654;28;20431;-60
2022/12/29 08:53:26;;;;;;;3.13;1.10;;;9.60;99.90;;;;;;5116559;28;20761;-61
2022/12/29 08:55:58;;;;;;;3.80;1.20;;;9.70;99.90;;;;;;5116329;28;20407;-61
2022/12/29 08:58:25;;;;;;;3.78;1.30;;;9.70;99.90;;;;;;5119652;28;20416;-61
2022/12/29 09:00:54;;;;;;;4.97;1.35;;;9.70;99.90;;;;;;5120865;28;20883;-60
2022/12/29 09:03:21;;;;;;;3.80;1.30;;;9.70;99.90;;;;;;5120876;28;20788;-62
2022/12/29 09:05:49;;;;;;;1.70;1.10;;;9.60;99.90;;;;;;5119633;28;20418;-62
2022/12/29 09:08:16;;;;;;;2.90;1.20;;;9.60;99.90;;;;;;5122144;28;20903;-60
2022/12/29 09:10:43;;;;;;;3.00;1.10;;;9.60;99.90;;;;;;5119699;28;20428;-63
2022/12/29 09:13:11;;;;;;;2.85;1.13;;;9.50;99.90;;;;;;5119407;28;20956;-62
2022/12/29 09:15:38;;;;;;;2.80;1.10;;;9.50;99.90;;;;;;5120188;28;20407;-62
2022/12/29 09:18:12;;;;;;;3.40;1.40;;;9.50;99.90;;;;;;5118751;28;21010;-61
2022/12/29 09:20:39;;;;;;;4.10;1.40;;;9.50;99.90;;;;;;5118571;28;20416;-62
2022/12/29 09:23:07;;;;;;;3.70;1.50;;;9.50;99.90;;;;;;5119492;28;20423;-63
2022/12/29 09:25:34;;;;;;;4.53;1.60;;;9.50;99.90;;;;;;5119737;28;20413;-62
2022/12/29 09:28:05;;;;;;;3.83;1.50;;;9.50;99.90;;;;;;5118026;28;20419;-62
2022/12/29 09:30:32;;;;;;;3.58;1.45;;;9.50;99.90;;;;;;5117437;28;20413;-64
2022/12/29 09:32:59;;;;;;;3.42;1.40;;;9.50;99.90;;;;;;5116987;28;20408;-62
2022/12/29 09:35:28;;;;;;;3.90;1.30;;;9.60;99.90;;;;;;5116626;28;20449;-62
2022/12/29 09:37:55;;;;;;;2.90;1.75;;;9.70;99.90;;;;;;5117263;28;20427;-63
2022/12/29 09:40:30;;;;;;;2.20;1.70;;;9.80;99.90;;;;;;5117000;28;20408;-63
2022/12/29 09:43:23;;;;;;;2.30;1.45;;;9.80;99.90;;;;;;5117229;27;20484;-62
2022/12/29 09:45:58;;;;;;;3.92;1.45;;;9.90;99.90;;;;;;5115654;28;20418;-64
2022/12/29 09:48:31;;;;;;;2.90;1.42;;;10.00;99.90;;;;;;5118215;28;20504;-63
2022/12/29 09:51:04;;;;;;;2.50;1.55;;;10.10;99.90;;;;;;5115883;28;20424;-63
2022/12/29 09:53:37;;;;;;;2.23;1.37;;;10.20;99.90;;;;;;5115712;28;20452;-61
2022/12/29 09:56:06;;;;;;;1.70;1.30;;;10.20;99.90;;;;;;5115834;28;20877;-62
2022/12/29 09:58:39;;;;;;;2.10;1.30;;;10.20;99.90;;;;;;5114750;28;20412;-62
2022/12/29 10:01:08;;;;;;;3.10;1.30;;;10.20;99.90;;;;;;5114915;28;20822;-62
2022/12/29 10:03:46;;;;;;;1.85;1.23;;;10.20;99.90;;;;;;5118094;28;20434;-63
2022/12/29 10:06:20;;;;;;;1.77;1.37;;;10.20;99.90;;;;;;5121111;28;20872;-65
2022/12/29 10:08:56;;;;;;;2.60;1.50;;;10.20;99.90;;;;;;5119135;28;20915;-63
2022/12/29 10:11:32;;;;;;;2.80;1.20;;;10.30;99.90;;;;;;5117197;28;20427;-63
2022/12/29 10:14:16;;;;;;;2.53;1.50;;;10.30;99.90;;;;;;5118834;28;20448;-63
2022/12/29 10:16:49;;;;;;;2.10;1.40;;;10.20;99.90;;;;;;5118169;28;20476;-63
2022/12/29 10:19:40;;;;;;;3.33;1.77;;;10.20;99.90;;;;;;5115556;28;21000;-65
2022/12/29 10:22:18;;;;;;;2.00;1.40;;;10.20;99.90;;;;;;5114603;28;20430;-64
2022/12/29 10:24:48;;;;;;;2.20;1.48;;;10.20;99.90;;;;;;5115128;28;20431;-64
2022/12/29 10:27:17;;;;;;;1.90;1.50;;;10.10;99.90;;;;;;5115032;28;20844;-64
2022/12/29 10:29:49;;;;;;;3.00;1.50;;;10.20;99.90;;;;;;5115375;28;20922;-63
2022/12/29 10:32:25;;;;;;;2.28;1.30;;;10.20;99.90;;;;;;5121462;28;20464;-64
2022/12/29 10:34:58;;;;;;;2.23;1.30;;;10.20;99.90;;;;;;5114836;28;20788;-63
2022/12/29 10:37:33;;;;;;;1.80;1.40;;;10.30;99.90;;;;;;5114864;28;20465;-64
2022/12/29 10:40:03;;;;;;;2.00;1.42;;;10.40;99.90;;;;;;5114362;28;20418;-63
2022/12/29 10:42:37;;;;;;;1.70;1.10;;;10.50;99.90;;;;;;5114587;28;20415;-64
2022/12/29 10:45:05;;;;;;;3.90;1.50;;;10.50;99.90;;;;;;5114000;28;20822;-64
2022/12/29 10:47:38;;;;;;;2.30;1.23;;;10.60;99.90;;;;;;5113750;28;20404;-62
2022/12/29 10:50:07;;;;;;;2.47;1.20;;;10.60;99.90;;;;;;5113762;28;20447;-62
2022/12/29 10:52:39;;;;;;;1.50;1.20;;;10.70;99.90;;;;;;5113739;28;20420;-64
2022/12/29 10:55:13;;;;;;;5.88;1.50;;;10.70;99.90;;;;;;5113699;28;20411;-64
2022/12/29 10:57:44;;;;;;;4.75;1.80;;;10.80;99.90;;;;;;5113552;28;20424;-62
2022/12/29 11:00:14;;;;;;;2.60;1.10;;;10.80;99.90;;;;;;5114615;28;20437;-64
2022/12/29 11:03:06;;;;;;;2.20;1.30;;;10.80;99.90;;;;;;5114376;28;20886;-63
2022/12/29 11:05:38;;;;;;;3.58;1.40;;;10.80;99.90;;;;;;5113348;28;20420;-63
2022/12/29 11:08:13;;;;;;;2.90;1.50;;;10.80;99.90;;;;;;5131174;22;20444;-61
2022/12/29 11:10:42;;;;;;;2.60;1.30;;;10.80;99.90;;;;;;5033243;28;20427;-62
2022/12/29 11:13:15;;;;;;;2.85;1.30;;;10.70;99.90;;;;;;5033962;28;20755;-64
2022/12/29 11:15:43;;;;;;;3.22;1.40;;;10.80;99.90;;;;;;5034323;28;20510;-65
2022/12/29 11:18:22;;;;;;;3.87;1.70;;;10.80;99.90;;;;;;5033193;28;20417;-64
2022/12/29 11:20:49;;;;;;;3.70;1.55;;;10.90;99.90;;;;;;5033811;28;20415;-63
2022/12/29 11:23:36;;;;;;;4.95;1.90;;;10.90;99.90;;;;;;5034346;28;20415;-66
2022/12/29 11:26:09;;;;;;;3.85;2.00;;;10.90;99.90;;;;;;5034011;28;20415;-65
2022/12/29 11:28:37;;;;;;;3.22;1.70;;;10.90;99.90;;;;;;5033873;28;20425;-62
2022/12/29 11:31:06;;;;;;;2.92;1.70;;;10.90;99.90;;;;;;5033497;28;20998;-63
2022/12/29 11:33:35;;;;;;;3.30;1.40;;;10.90;99.90;;;;;;5033674;28;20411;-63
2022/12/29 11:36:06;;;;;;;3.45;1.67;;;10.90;99.90;;;;;;5034231;28;20505;-64
2022/12/29 11:38:41;;;;;;;2.45;1.50;;;10.90;99.90;;;;;;5033539;28;20898;-65
2022/12/29 11:41:12;;;;;;;2.75;1.40;;;10.90;99.90;;;;;;5034283;28;20429;-63
2022/12/29 11:43:43;;;;;;;2.78;1.30;;;10.90;99.90;;;;;;5035258;28;20915;-64
2022/12/29 11:46:17;;;;;;;3.28;1.30;;;11.00;99.90;;;;;;5035352;28;20445;-63
2022/12/29 11:48:44;;;;;;;5.20;1.40;;;11.00;99.90;;;;;;5033502;28;20979;-63
2022/12/29 11:51:12;;;;;;;3.30;1.70;;;11.00;99.90;;;;;;5032307;28;20431;-63
2022/12/29 11:53:44;;;;;;;4.32;1.73;;;11.10;99.90;;;;;;5033028;28;20510;-64
2022/12/29 11:56:15;;;;;;;3.30;1.60;;;11.20;99.90;;;;;;5034285;28;20488;-63
2022/12/29 11:58:42;;;;;;;3.78;1.58;;;11.20;99.90;;;;;;5036962;28;20426;-63
2022/12/29 12:01:17;;;;;;;3.50;1.88;;;11.30;99.90;;;;;;5038283;28;20415;-62
2022/12/29 12:03:48;;;;;;;4.32;1.48;;;11.40;99.90;;;;;;5038195;28;20498;-63
2022/12/29 12:06:20;;;;;;;4.32;1.42;;;11.40;99.90;;;;;;5038410;28;20419;-63
2022/12/29 12:08:55;;;;;;;4.10;1.70;;;11.50;99.90;;;;;;5038863;28;20904;-62
2022/12/29 12:11:25;;;;;;;4.05;1.20;;;11.60;99.90;;;;;;5036887;28;20791;-64
2022/12/29 12:14:00;;;;;;;4.07;1.40;;;11.80;99.80;;;;;;5034397;28;20917;-63
2022/12/29 12:16:33;;;;;;;2.92;1.33;;;11.80;98.70;;;;;;5033886;28;20423;-63
2022/12/29 12:19:05;;;;;;;3.30;1.40;;;11.90;97.70;;;;;;5032487;28;20423;-63
2022/12/29 12:21:36;;;;;;;3.92;1.10;;;11.90;96.40;;;;;;5032537;28;20501;-62
2022/12/29 12:24:32;;;;;;;3.35;1.20;;;11.90;95.90;;;;;;5034177;28;20887;-63
2022/12/29 12:27:03;;;;;;;4.60;1.30;;;11.90;95.70;;;;;;5037146;28;20422;-64
2022/12/29 12:29:38;;;;;;;2.53;1.10;;;11.90;95.50;;;;;;5035759;28;20414;-63
2022/12/29 12:32:12;;;;;;;5.82;1.20;;;11.90;95.20;;;;;;5038904;28;20438;-63
2022/12/29 12:34:42;;;;;;;3.85;1.45;;;11.90;95.40;;;;;;5039558;28;20419;-63
2022/12/29 12:37:51;;;;;;;2.55;1.10;;;11.90;95.40;;;;;;5039090;28;20411;-64
2022/12/29 12:40:54;;;;;;;4.28;1.42;;;11.90;95.60;;;;;;5038818;28;20419;-63
2022/12/29 12:43:35;;;;;;;2.50;1.00;;;11.80;95.40;;;;;;5004624;28;20418;-64
2022/12/29 12:46:15;;;;;;;2.38;1.00;;;11.80;95.50;;;;;;5036347;28;20509;-64
2022/12/29 12:48:54;;;;;;;2.70;1.40;;;11.80;95.50;;;;;;5036228;28;20431;-64
2022/12/29 12:51:33;;;;;;;4.20;1.47;;;11.70;95.80;;;;;;5036685;28;20801;-64
2022/12/29 12:54:13;;;;;;;3.60;1.40;;;11.70;96.10;;;;;;5036902;28;20487;-64
2022/12/29 12:56:59;;;;;;;3.30;1.00;;;11.60;96.20;;;;;;5036879;28;20434;-64
2022/12/29 12:59:39;;;;;;;3.63;1.23;;;11.60;96.20;;;;;;5036533;28;20407;-64
2022/12/29 13:02:20;;;;;;;3.20;1.10;;;11.60;96.40;;;;;;5036457;28;20764;-62
2022/12/29 13:05:04;;;;;;;3.97;1.20;;;11.60;96.20;;;;;;5035979;28;20411;-64
2022/12/29 13:07:45;;;;;;;4.32;1.25;;;11.60;96.00;;;;;;5035962;28;20506;-63
2022/12/29 13:10:28;;;;;;;4.40;1.50;;;11.60;95.60;;;;;;5035759;28;20461;-63
2022/12/29 13:13:14;;;;;;;3.38;1.40;;;11.60;95.00;;;;;;5036455;28;20434;-64
2022/12/29 13:15:51;;;;;;;4.68;1.50;;;11.60;94.70;;;;;;5036122;28;20796;-63
2022/12/29 13:18:26;;;;;;;4.07;1.30;;;11.60;94.50;;;;;;5036306;28;20418;-64
2022/12/29 13:21:01;;;;;;;2.70;1.30;;;11.60;94.80;;;;;;5035445;28;20876;-62
2022/12/29 13:23:34;;;;;;;5.63;1.65;;;11.60;94.80;;;;;;5035550;28;20411;-63
2022/12/29 13:26:09;;;;;;;4.93;1.80;;;11.60;94.30;;;;;;5035256;28;20896;-62
2022/12/29 13:28:48;;;;;;;4.47;1.70;;;11.60;93.80;;;;;;5035140;28;20748;-62
2022/12/29 13:31:22;;;;;;;3.05;1.10;;;11.60;93.40;;;;;;5036091;28;20415;-63
2022/12/29 13:33:57;;;;;;;4.10;1.70;;;11.60;92.70;;;;;;5035922;28;20777;-64
2022/12/29 13:36:28;;;;;;;4.05;1.70;;;11.60;92.50;;;;;;5036840;28;20418;-62
2022/12/29 13:39:03;;;;;;;4.30;1.70;;;11.60;92.30;;;;;;5039024;28;20512;-62
2022/12/29 13:41:34;;;;;;;3.08;1.90;;;11.70;92.00;;;;;;5035494;28;20453;-64
2022/12/29 13:44:05;;;;;;;4.40;1.60;;;11.70;92.00;;;;;;5035153;28;20419;-62
2022/12/29 13:46:37;;;;;;;5.07;2.00;;;11.70;91.80;;;;;;5034754;28;20414;-62
2022/12/29 13:49:07;;;;;;;2.42;1.30;;;11.70;91.40;;;;;;5035288;28;20422;-63